Time;durP1;ratioP1;P1;durP2;ratioP2;P2;SDS_P1;SDS_P2;PMS_P1;PMS_P2;Temp;Humidity;BMP_temperature;BMP_pressure;BME280_temperature;BME280_humidity;BME280_pressure;Samples;Min_cycle;Max_cycle;Signal;HPM_P1;HPM_P2
2021/11/10 00:00:00;;;;;;;;;;;6.30;99.90;;;;;;5085713;28;19924;-83
2021/11/10 00:02:26;;;;;;;;;;;6.20;99.90;;;;;;5092224;28;19924;-83
2021/11/10 00:04:54;;;;;;;;;;;6.30;99.90;;;;;;5092373;28;19929;-83
2021/11/10 00:07:21;;;;;;;;;;;6.40;99.90;;;;;;5082791;28;19971;-83
2021/11/10 00:09:47;;;;;;;;;;;5.90;99.90;;;;;;5083690;28;19970;-82
2021/11/10 00:12:14;;;;;;;;;;;6.30;99.90;;;;;;5078848;28;19928;-82
2021/11/10 00:14:40;;;;;;;;;;;6.20;99.90;;;;;;5082246;28;19924;-84
2021/11/10 00:17:07;;;;;;;;;;;6.20;99.90;;;;;;5080754;28;19928;-83
2021/11/10 00:19:34;;;;;;;;;;;6.10;99.90;;;;;;5080066;28;19925;-83
2021/11/10 00:22:02;;;;;;;;;;;6.00;99.90;;;;;;5081188;28;19925;-82
2021/11/10 00:24:28;;;;;;;;;;;5.90;99.90;;;;;;5089325;28;19982;-82
2021/11/10 00:26:55;;;;;;;;;;;5.90;99.90;;;;;;5084437;28;19924;-83
2021/11/10 00:29:24;;;;;;;;;;;6.00;99.90;;;;;;5083673;28;19924;-82
2021/11/10 00:31:51;;;;;;;;;;;5.90;99.90;;;;;;5081495;28;20295;-82
2021/11/10 00:34:17;;;;;;;;;;;6.20;99.90;;;;;;5082857;28;20367;-82
2021/11/10 00:36:44;;;;;;;;;;;6.10;99.90;;;;;;5095676;28;19924;-81
2021/11/10 00:39:12;;;;;;;;;;;6.00;99.90;;;;;;5093424;28;20050;-81
2021/11/10 00:41:38;;;;;;;;;;;6.00;99.90;;;;;;5083316;28;19928;-82
2021/11/10 00:44:05;;;;;;;;;;;6.00;99.90;;;;;;5091374;28;19924;-82
2021/11/10 00:46:33;;;;;;;;;;;6.00;99.90;;;;;;5096363;28;19932;-82
2021/11/10 00:48:59;;;;;;;;;;;6.00;99.90;;;;;;5084798;28;19928;-81
2021/11/10 00:51:26;;;;;;;;;;;5.90;99.90;;;;;;5084098;28;19947;-82
2021/11/10 00:53:53;;;;;;;;;;;5.90;99.90;;;;;;5083595;28;19931;-82
2021/11/10 00:56:20;;;;;;;;;;;5.90;99.90;;;;;;5082035;28;19954;-81
2021/11/10 00:58:47;;;;;;;;;;;5.90;99.90;;;;;;5082409;28;19924;-81
2021/11/10 01:01:13;;;;;;;;;;;5.90;99.90;;;;;;5082848;28;19975;-81
2021/11/10 01:03:40;;;;;;;;;;;5.80;99.90;;;;;;5090452;28;19909;-81
2021/11/10 01:06:06;;;;;;;;;;;5.70;99.90;;;;;;5088148;28;19916;-82
2021/11/10 01:08:33;;;;;;;;;;;5.70;99.90;;;;;;5086574;28;20012;-82
2021/11/10 01:10:59;;;;;;;;;;;5.70;99.90;;;;;;5088977;28;19924;-82
2021/11/10 01:13:27;;;;;;;;;;;5.70;99.90;;;;;;5085599;28;19932;-83
2021/11/10 01:15:54;;;;;;;;;;;5.60;99.90;;;;;;5085624;28;19935;-84
2021/11/10 01:18:20;;;;;;;;;;;5.60;99.90;;;;;;5086331;28;19924;-82
2021/11/10 01:20:47;;;;;;;;;;;5.60;99.90;;;;;;5086361;28;19924;-82
2021/11/10 01:23:14;;;;;;;;;;;5.50;99.90;;;;;;5086417;28;19981;-83
2021/11/10 01:25:40;;;;;;;;;;;5.30;99.90;;;;;;5086131;28;20456;-83
2021/11/10 01:28:08;;;;;;;;;;;5.20;99.90;;;;;;5086193;28;19947;-82
2021/11/10 01:30:36;;;;;;;;;;;5.20;99.90;;;;;;5085773;28;20378;-82
2021/11/10 01:33:03;;;;;;;;;;;5.10;99.90;;;;;;5085717;28;19924;-82
2021/11/10 01:35:29;;;;;;;;;;;5.20;99.90;;;;;;5088616;28;20383;-81
2021/11/10 01:37:56;;;;;;;;;;;5.30;99.90;;;;;;5090330;28;19959;-81
2021/11/10 01:40:22;;;;;;;;;;;5.40;99.90;;;;;;5090796;28;19924;-81
2021/11/10 01:42:51;;;;;;;;;;;5.40;99.90;;;;;;5086854;28;20018;-82
2021/11/10 01:45:21;;;;;;;;;;;5.30;99.90;;;;;;5085488;28;19925;-82
2021/11/10 01:47:49;;;;;;;;;;;5.20;99.90;;;;;;5084901;28;19930;-81
2021/11/10 01:50:16;;;;;;;;;;;5.10;99.90;;;;;;5086627;28;19924;-81
2021/11/10 01:52:43;;;;;;;;;;;5.30;99.90;;;;;;5085900;28;19954;-82
2021/11/10 01:55:11;;;;;;;;;;;5.10;99.90;;;;;;5094372;28;20263;-81
2021/11/10 01:57:37;;;;;;;;;;;5.20;99.90;;;;;;5094757;28;19924;-82
2021/11/10 02:00:14;;;;;;;;;;;5.20;99.90;;;;;;5093147;28;19931;-81
2021/11/10 02:02:41;;;;;;;;;;;5.20;99.90;;;;;;5095360;28;19924;-82
2021/11/10 02:05:12;;;;;;;;;;;5.20;99.90;;;;;;5090218;28;19924;-82
2021/11/10 02:07:40;;;;;;;;;;;5.00;99.90;;;;;;5086699;28;19925;-83
2021/11/10 02:10:07;;;;;;;;;;;4.90;99.90;;;;;;5086879;28;19924;-83
2021/11/10 02:12:34;;;;;;;;;;;4.80;99.90;;;;;;5091569;28;19994;-83
2021/11/10 02:15:02;;;;;;;;;;;4.80;99.90;;;;;;5094701;28;19924;-83
2021/11/10 02:17:29;;;;;;;;;;;4.90;99.90;;;;;;5086811;28;19925;-82
2021/11/10 02:19:55;;;;;;;;;;;5.20;99.90;;;;;;5084123;28;19924;-82
2021/11/10 02:22:23;;;;;;;;;;;4.90;99.90;;;;;;5084040;28;19925;-82
2021/11/10 02:24:50;;;;;;;;;;;5.00;99.90;;;;;;5084415;28;19932;-83
2021/11/10 02:27:18;;;;;;;;;;;5.00;99.90;;;;;;5085087;28;19932;-82
2021/11/10 02:29:45;;;;;;;;;;;4.90;99.90;;;;;;5085354;28;19946;-83
2021/11/10 02:32:13;;;;;;;;;;;4.90;99.90;;;;;;5086035;28;19960;-82
2021/11/10 02:34:40;;;;;;;;;;;4.90;99.90;;;;;;5086691;28;19951;-82
2021/11/10 02:37:07;;;;;;;;;;;4.90;99.90;;;;;;5085634;28;19924;-82
2021/11/10 02:39:36;;;;;;;;;;;4.90;99.90;;;;;;5086095;28;20292;-81
2021/11/10 02:42:03;;;;;;;;;;;4.80;99.90;;;;;;5088249;28;19925;-81
2021/11/10 02:44:30;;;;;;;;;;;4.90;99.90;;;;;;5088836;28;19931;-82
2021/11/10 02:46:56;;;;;;;;;;;4.90;99.90;;;;;;5088163;28;19924;-82
2021/11/10 02:49:23;;;;;;;;;;;4.90;99.90;;;;;;5086665;28;19967;-83
2021/11/10 02:51:56;;;;;;;;;;;5.10;99.90;;;;;;5085500;28;19928;-82
2021/11/10 02:54:24;;;;;;;;;;;4.90;99.90;;;;;;5085580;28;19935;-83
2021/11/10 02:56:52;;;;;;;;;;;4.80;99.90;;;;;;5084321;28;20429;-82
2021/11/10 02:59:18;;;;;;;;;;;4.60;99.90;;;;;;5086019;28;19936;-82
2021/11/10 03:01:45;;;;;;;;;;;4.70;99.90;;;;;;5085062;28;19974;-82
2021/11/10 03:04:18;;;;;;;;;;;4.70;99.90;;;;;;5086153;28;19929;-82
2021/11/10 03:06:45;;;;;;;;;;;4.70;99.90;;;;;;5084766;28;19974;-83
2021/11/10 03:09:11;;;;;;;;;;;4.70;99.90;;;;;;5097064;28;19913;-81
2021/11/10 03:11:38;;;;;;;;;;;4.70;99.90;;;;;;5093689;28;19932;-82
2021/11/10 03:14:06;;;;;;;;;;;4.70;99.90;;;;;;5082143;28;20302;-82
2021/11/10 03:16:33;;;;;;;;;;;4.60;99.90;;;;;;5088899;28;19925;-82
2021/11/10 03:18:59;;;;;;;;;;;5.10;99.90;;;;;;5096932;28;19928;-81
2021/11/10 03:21:26;;;;;;;;;;;4.60;99.90;;;;;;5096117;28;19932;-81
2021/11/10 03:23:52;;;;;;;;;;;4.50;99.90;;;;;;5095280;28;19947;-81
2021/11/10 03:26:21;;;;;;;;;;;4.60;99.90;;;;;;5093131;28;19934;-81
2021/11/10 03:28:48;;;;;;;;;;;4.60;99.90;;;;;;5086561;28;19979;-82
2021/11/10 03:31:16;;;;;;;;;;;4.70;99.90;;;;;;5091153;28;19979;-81
2021/11/10 03:33:43;;;;;;;;;;;4.60;99.90;;;;;;5093523;28;19923;-81
2021/11/10 03:36:09;;;;;;;;;;;4.50;99.90;;;;;;5089023;28;19975;-81
2021/11/10 03:38:36;;;;;;;;;;;4.50;99.90;;;;;;5085299;28;19924;-82
2021/11/10 03:41:02;;;;;;;;;;;4.70;99.90;;;;;;5086234;28;20402;-82
2021/11/10 03:43:29;;;;;;;;;;;4.50;99.90;;;;;;5087587;28;19971;-81
2021/11/10 03:45:56;;;;;;;;;;;4.30;99.90;;;;;;5089054;28;19931;-81
2021/11/10 03:48:24;;;;;;;;;;;4.30;99.90;;;;;;5086449;28;19924;-82
2021/11/10 03:50:50;;;;;;;;;;;4.40;99.90;;;;;;5085814;28;19924;-82
2021/11/10 03:53:17;;;;;;;;;;;4.40;99.90;;;;;;5090447;28;19925;-82
2021/11/10 03:55:43;;;;;;;;;;;4.50;99.90;;;;;;5093893;28;19923;-82
2021/11/10 03:58:11;;;;;;;;;;;4.50;99.90;;;;;;5098570;28;19929;-82
2021/11/10 04:00:37;;;;;;;;;;;4.50;99.90;;;;;;5087298;28;19931;-82
2021/11/10 04:03:04;;;;;;;;;;;4.20;99.90;;;;;;5088483;28;19932;-82
2021/11/10 04:05:32;;;;;;;;;;;4.00;99.90;;;;;;5098029;28;19928;-81
2021/11/10 04:07:58;;;;;;;;;;;4.00;99.90;;;;;;5089663;28;20360;-81
2021/11/10 04:10:25;;;;;;;;;;;3.90;99.90;;;;;;5083106;28;19924;-82
2021/11/10 04:12:51;;;;;;;;;;;3.90;99.90;;;;;;5083825;28;19975;-81
2021/11/10 04:15:18;;;;;;;;;;;4.10;99.90;;;;;;5083056;28;19971;-81
2021/11/10 04:17:44;;;;;;;;;;;4.20;99.90;;;;;;5082889;28;20302;-81
2021/11/10 04:20:11;;;;;;;;;;;4.30;99.90;;;;;;5083570;28;19989;-81
2021/11/10 04:22:39;;;;;;;;;;;4.20;99.90;;;;;;5082119;28;19925;-81
2021/11/10 04:25:06;;;;;;;;;;;4.20;99.90;;;;;;5083165;28;19931;-81
2021/11/10 04:27:32;;;;;;;;;;;4.20;99.90;;;;;;5085667;28;19936;-81
2021/11/10 04:29:59;;;;;;;;;;;4.30;99.90;;;;;;5090646;28;19946;-81
2021/11/10 04:32:25;;;;;;;;;;;4.20;99.90;;;;;;5091019;28;19924;-81
2021/11/10 04:34:52;;;;;;;;;;;4.20;99.90;;;;;;5081564;28;19952;-81
2021/11/10 04:37:18;;;;;;;;;;;4.30;99.90;;;;;;5079177;28;19943;-82
2021/11/10 04:39:46;;;;;;;;;;;4.20;99.90;;;;;;5079169;28;19931;-82
2021/11/10 04:42:14;;;;;;;;;;;4.30;99.90;;;;;;5078493;28;20289;-83
2021/11/10 04:44:40;;;;;;;;;;;4.20;99.90;;;;;;5079147;28;19935;-82
2021/11/10 04:47:06;;;;;;;;;;;4.20;99.90;;;;;;5078625;28;19960;-82
2021/11/10 04:49:33;;;;;;;;;;;4.20;99.90;;;;;;5078792;28;19960;-82
2021/11/10 04:52:00;;;;;;;;;;;4.50;99.90;;;;;;5081472;28;19935;-83
2021/11/10 04:54:30;;;;;;;;;;;4.10;99.90;;;;;;5089563;28;20004;-83
2021/11/10 04:56:58;;;;;;;;;;;4.00;99.90;;;;;;5084126;28;19924;-82
2021/11/10 04:59:24;;;;;;;;;;;4.00;99.90;;;;;;5081141;28;19950;-82
2021/11/10 05:02:02;;;;;;;;;;;4.00;99.90;;;;;;5079482;28;19924;-82
2021/11/10 05:04:29;;;;;;;;;;;3.80;99.90;;;;;;5078917;28;19970;-82
2021/11/10 05:06:55;;;;;;;;;;;3.80;99.90;;;;;;5094481;22;19932;-81
2021/11/10 05:09:22;;;;;;;;;;;4.20;99.90;;;;;;5059167;28;19931;-81
2021/11/10 05:11:49;;;;;;;;;;;3.80;99.90;;;;;;5060326;28;19928;-79
2021/11/10 05:14:16;;;;;;;;;;;3.90;99.90;;;;;;5065274;28;19932;-79
2021/11/10 05:16:43;;;;;;;;;;;3.80;99.90;;;;;;5068660;28;19925;-81
2021/11/10 05:19:09;;;;;;;;;;;3.80;99.90;;;;;;5060841;28;19968;-80
2021/11/10 05:21:36;;;;;;;;;;;3.80;99.90;;;;;;5059974;28;19932;-80
2021/11/10 05:24:02;;;;;;;;;;;3.80;99.90;;;;;;5059329;28;19924;-80
2021/11/10 05:26:29;;;;;;;;;;;3.80;99.90;;;;;;5057702;28;19929;-81
2021/11/10 05:28:55;;;;;;;;;;;3.70;99.90;;;;;;5057822;28;19928;-81
2021/11/10 05:31:23;;;;;;;;;;;3.70;99.90;;;;;;5060507;28;19947;-80
2021/11/10 05:33:50;;;;;;;;;;;3.80;99.90;;;;;;5075448;28;19932;-81
2021/11/10 05:36:16;;;;;;;;;;;3.80;99.90;;;;;;5075640;28;19929;-80
2021/11/10 05:38:43;;;;;;;;;;;3.80;99.90;;;;;;5068748;28;19932;-78
2021/11/10 05:41:09;;;;;;;;;;;3.70;99.90;;;;;;5070050;28;19925;-78
2021/11/10 05:43:36;;;;;;;;;;;3.70;99.90;;;;;;5071174;28;19948;-80
2021/11/10 05:46:04;;;;;;;;;;;3.60;99.90;;;;;;5067575;28;20346;-81
2021/11/10 05:48:32;;;;;;;;;;;3.60;99.90;;;;;;5064168;28;19923;-81
2021/11/10 05:50:59;;;;;;;;;;;3.70;99.90;;;;;;5069004;28;19935;-79
2021/11/10 05:53:26;;;;;;;;;;;3.70;99.90;;;;;;5072405;28;19939;-80
2021/11/10 05:55:55;;;;;;;;;;;3.70;99.90;;;;;;5075455;28;19924;-79
2021/11/10 05:58:22;;;;;;;;;;;3.80;99.90;;;;;;5073790;28;19925;-80
2021/11/10 06:00:49;;;;;;;;;;;3.70;99.90;;;;;;5073560;28;19982;-78
2021/11/10 06:03:16;;;;;;;;;;;3.70;99.90;;;;;;5072467;28;19925;-77
2021/11/10 06:05:44;;;;;;;;;;;3.70;99.90;;;;;;5069665;28;19951;-80
2021/11/10 06:08:10;;;;;;;;;;;3.70;99.90;;;;;;5064623;28;19931;-80
2021/11/10 06:10:37;;;;;;;;;;;3.60;99.90;;;;;;5065125;28;19932;-80
2021/11/10 06:13:03;;;;;;;;;;;3.70;99.90;;;;;;5065523;28;19925;-80
2021/11/10 06:15:30;;;;;;;;;;;3.70;99.90;;;;;;5064252;28;20340;-81
2021/11/10 06:17:57;;;;;;;;;;;3.60;99.90;;;;;;5063691;28;20400;-77
2021/11/10 06:20:23;;;;;;;;;;;3.60;99.90;;;;;;5062695;28;19971;-80
2021/11/10 06:22:51;;;;;;;;;;;3.60;99.90;;;;;;5063386;28;20031;-81
2021/11/10 06:25:18;;;;;;;;;;;3.50;99.90;;;;;;5061474;28;19932;-80
2021/11/10 06:27:44;;;;;;;;;;;3.60;99.90;;;;;;5063305;28;19976;-80
2021/11/10 06:30:11;;;;;;;;;;;3.50;99.90;;;;;;5063032;28;19925;-80
2021/11/10 06:32:38;;;;;;;;;;;3.50;99.90;;;;;;5062744;28;20346;-80
2021/11/10 06:35:05;;;;;;;;;;;3.50;99.90;;;;;;5064706;28;19925;-80
2021/11/10 06:37:32;;;;;;;;;;;3.50;99.90;;;;;;5063499;28;19947;-81
2021/11/10 06:39:59;;;;;;;;;;;3.60;99.90;;;;;;5063261;28;19955;-81
2021/11/10 06:42:26;;;;;;;;;;;3.50;99.90;;;;;;5066430;28;19932;-79
2021/11/10 06:44:55;;;;;;;;;;;3.70;99.90;;;;;;5067085;28;19931;-80
2021/11/10 06:47:22;;;;;;;;;;;3.80;99.90;;;;;;5062440;28;20438;-81
2021/11/10 06:49:48;;;;;;;;;;;3.80;99.90;;;;;;5062200;28;19929;-81
2021/11/10 06:52:15;;;;;;;;;;;3.80;99.90;;;;;;5064714;28;19925;-81
2021/11/10 06:54:41;;;;;;;;;;;3.80;99.90;;;;;;5063295;28;19925;-81
2021/11/10 06:57:09;;;;;;;;;;;3.70;99.90;;;;;;5066697;28;20391;-82
2021/11/10 06:59:35;;;;;;;;;;;3.70;99.90;;;;;;5066584;28;19925;-82
2021/11/10 07:02:02;;;;;;;;;;;3.80;99.90;;;;;;5066614;28;19925;-81
2021/11/10 07:04:28;;;;;;;;;;;3.90;99.90;;;;;;5065247;28;19970;-81
2021/11/10 07:06:55;;;;;;;;;;;4.00;99.90;;;;;;5073603;28;19925;-81
2021/11/10 07:09:21;;;;;;;;;;;4.00;99.90;;;;;;5075041;28;19908;-79
2021/11/10 07:11:48;;;;;;;;;;;4.00;99.90;;;;;;5070588;28;19947;-79
2021/11/10 07:14:15;;;;;;;;;;;4.00;99.90;;;;;;5069058;28;19925;-79
2021/11/10 07:16:42;;;;;;;;;;;4.10;99.90;;;;;;5070078;28;19929;-78
2021/11/10 07:19:08;;;;;;;;;;;4.00;99.90;;;;;;5069608;28;20442;-80
2021/11/10 07:21:35;;;;;;;;;;;4.10;99.90;;;;;;5065731;28;19925;-80
2021/11/10 07:24:01;;;;;;;;;;;4.10;99.90;;;;;;5065067;28;19925;-81
2021/11/10 07:26:28;;;;;;;;;;;4.10;99.90;;;;;;5062363;28;19978;-80
2021/11/10 07:28:55;;;;;;;;;;;4.10;99.90;;;;;;5061837;28;19925;-80
2021/11/10 07:31:22;;;;;;;;;;;4.20;99.90;;;;;;5062860;28;19925;-80
2021/11/10 07:33:49;;;;;;;;;;;3.00;99.90;;;;;;5061489;28;19970;-80
2021/11/10 07:36:16;;;;;;;;;;;4.20;99.90;;;;;;5061720;28;19955;-80
2021/11/10 07:38:42;;;;;;;;;;;4.20;99.90;;;;;;5060586;28;19924;-79
2021/11/10 07:41:12;;;;;;;;;;;4.10;99.90;;;;;;5065330;28;19932;-80
2021/11/10 07:43:39;;;;;;;;;;;4.30;99.90;;;;;;5064871;28;20358;-79
2021/11/10 07:46:10;;;;;;;;;;;4.40;99.90;;;;;;5061775;28;19928;-79
2021/11/10 07:48:39;;;;;;;;;;;4.40;99.90;;;;;;5062544;28;19936;-80
2021/11/10 07:51:05;;;;;;;;;;;4.50;99.90;;;;;;5071155;28;20368;-79
2021/11/10 07:53:32;;;;;;;;;;;4.60;99.90;;;;;;5074864;28;19924;-78
2021/11/10 07:55:58;;;;;;;;;;;4.70;99.90;;;;;;5074380;28;19992;-78
2021/11/10 07:58:25;;;;;;;;;;;4.80;99.90;;;;;;5073649;28;19975;-79
2021/11/10 08:00:51;;;;;;;;;;;4.70;99.90;;;;;;5072534;28;19925;-78
2021/11/10 08:03:18;;;;;;;;;;;4.60;99.90;;;;;;5074349;28;19956;-78
2021/11/10 08:05:46;;;;;;;;;;;4.70;99.90;;;;;;5074969;28;19924;-77
2021/11/10 08:08:12;;;;;;;;;;;4.70;99.90;;;;;;5073769;28;19951;-80
2021/11/10 08:10:39;;;;;;;;;;;4.80;99.90;;;;;;5074233;28;19932;-79
2021/11/10 08:13:06;;;;;;;;;;;5.00;99.90;;;;;;5072969;28;19925;-79
2021/11/10 08:15:32;;;;;;;;;;;5.00;99.90;;;;;;5066479;28;19932;-79
2021/11/10 08:17:58;;;;;;;;;;;5.10;99.90;;;;;;5063809;28;19924;-80
2021/11/10 08:20:25;;;;;;;;;;;5.20;99.90;;;;;;5060873;28;19925;-79
2021/11/10 08:22:53;;;;;;;;;;;5.40;99.90;;;;;;5060626;28;19924;-80
2021/11/10 08:25:19;;;;;;;;;;;5.50;99.90;;;;;;5060965;28;19925;-79
2021/11/10 08:27:46;;;;;;;;;;;5.50;99.90;;;;;;5061481;28;19960;-80
2021/11/10 08:30:14;;;;;;;;;;;5.50;99.90;;;;;;5060104;28;19983;-79
2021/11/10 08:32:41;;;;;;;;;;;5.40;99.90;;;;;;5061500;28;20003;-78
2021/11/10 08:35:08;;;;;;;;;;;5.30;99.90;;;;;;5063125;28;19925;-80
2021/11/10 08:37:35;;;;;;;;;;;5.40;99.90;;;;;;5060552;28;19924;-78
2021/11/10 08:40:03;;;;;;;;;;;5.50;99.90;;;;;;5060640;28;20387;-80
2021/11/10 08:42:32;;;;;;;;;;;5.70;99.90;;;;;;5061111;28;19928;-80
2021/11/10 08:44:59;;;;;;;;;;;5.60;99.90;;;;;;5059821;28;20066;-79
2021/11/10 08:47:26;;;;;;;;;;;5.70;99.90;;;;;;5059963;28;19925;-80
2021/11/10 08:49:52;;;;;;;;;;;5.70;99.90;;;;;;5060861;28;20280;-78
2021/11/10 08:52:19;;;;;;;;;;;5.80;99.90;;;;;;5059621;28;19925;-80
2021/11/10 08:54:46;;;;;;;;;;;5.80;99.90;;;;;;5060555;28;19974;-80
2021/11/10 08:57:13;;;;;;;;;;;5.90;99.90;;;;;;5058757;28;19953;-80
2021/11/10 08:59:40;;;;;;;;;;;5.80;99.90;;;;;;5064876;28;19947;-79
2021/11/10 09:02:08;;;;;;;;;;;5.80;99.90;;;;;;5068293;28;19925;-79
2021/11/10 09:04:34;;;;;;;;;;;5.80;99.90;;;;;;5065992;28;19925;-80
2021/11/10 09:07:01;;;;;;;;;;;5.90;99.90;;;;;;5069249;28;19931;-81
2021/11/10 09:09:27;;;;;;;;;;;5.90;99.90;;;;;;5072512;28;19925;-79
2021/11/10 09:11:54;;;;;;;;;;;6.00;99.90;;;;;;5067208;28;19925;-81
2021/11/10 09:14:22;;;;;;;;;;;6.10;99.90;;;;;;5065874;28;19935;-79
2021/11/10 09:16:48;;;;;;;;;;;6.20;99.90;;;;;;5065100;28;19929;-81
2021/11/10 09:19:15;;;;;;;;;;;6.20;99.90;;;;;;5064153;28;19951;-80
2021/11/10 09:21:41;;;;;;;;;;;6.30;99.90;;;;;;5063718;28;20358;-80
2021/11/10 09:24:08;;;;;;;;;;;6.30;99.90;;;;;;5064164;28;19925;-80
2021/11/10 09:26:35;;;;;;;;;;;6.40;99.90;;;;;;5065685;28;19928;-79
2021/11/10 09:29:01;;;;;;;;;;;6.50;99.90;;;;;;5070874;28;19924;-79
2021/11/10 09:31:29;;;;;;;;;;;6.60;99.90;;;;;;5069817;28;19925;-79
2021/11/10 09:34:00;;;;;;;;;;;6.60;99.90;;;;;;5073659;28;19974;-78
2021/11/10 09:36:26;;;;;;;;;;;6.70;99.90;;;;;;5071470;28;19931;-80
2021/11/10 09:38:53;;;;;;;;;;;6.70;99.90;;;;;;5064516;28;20415;-79
2021/11/10 09:41:20;;;;;;;;;;;6.80;99.90;;;;;;5062428;28;19980;-80
2021/11/10 09:43:47;;;;;;;;;;;6.80;99.90;;;;;;5062275;28;19925;-78
2021/11/10 09:46:14;;;;;;;;;;;6.90;99.90;;;;;;5068068;28;19931;-80
2021/11/10 09:48:41;;;;;;;;;;;6.80;99.90;;;;;;5062615;28;19924;-79
2021/11/10 09:51:08;;;;;;;;;;;6.80;99.90;;;;;;5062173;28;19932;-80
2021/11/10 09:53:36;;;;;;;;;;;6.80;99.90;;;;;;5062125;28;19925;-80
2021/11/10 09:56:03;;;;;;;;;;;6.90;99.90;;;;;;5064488;28;19931;-81
2021/11/10 09:58:32;;;;;;;;;;;6.90;99.90;;;;;;5068234;28;19932;-80
2021/11/10 10:00:59;;;;;;;;;;;7.00;99.90;;;;;;5066205;28;19964;-80
2021/11/10 10:03:26;;;;;;;;;;;7.00;99.90;;;;;;5065172;28;19925;-79
2021/11/10 10:05:55;;;;;;;;;;;7.10;99.90;;;;;;5063361;28;19925;-81
2021/11/10 10:08:22;;;;;;;;;;;7.40;99.90;;;;;;5072801;28;19961;-77
2021/11/10 10:10:52;;;;;;;;;;;7.40;99.90;;;;;;5074045;28;19959;-79
2021/11/10 10:13:19;;;;;;;;;;;7.50;99.90;;;;;;5075668;28;19925;-79
2021/11/10 10:15:48;;;;;;;;;;;7.50;99.90;;;;;;5070959;28;19925;-80
2021/11/10 10:18:16;;;;;;;;;;;7.60;99.90;;;;;;5068972;28;19931;-79
2021/11/10 10:20:43;;;;;;;;;;;7.60;99.90;;;;;;5064998;28;19935;-79
2021/11/10 10:23:12;;;;;;;;;;;7.70;99.90;;;;;;5064338;28;19925;-81
2021/11/10 10:25:40;;;;;;;;;;;7.80;99.90;;;;;;5062688;28;19974;-80
2021/11/10 10:28:07;;;;;;;;;;;8.00;99.90;;;;;;5067926;28;19925;-79
2021/11/10 10:30:35;;;;;;;;;;;8.00;99.90;;;;;;5071745;28;19924;-79
2021/11/10 10:33:04;;;;;;;;;;;8.60;99.90;;;;;;5072705;28;20457;-78
2021/11/10 10:35:32;;;;;;;;;;;8.20;99.90;;;;;;5071500;28;19925;-79
2021/11/10 10:38:00;;;;;;;;;;;8.20;99.90;;;;;;5068517;28;19932;-79
2021/11/10 10:40:28;;;;;;;;;;;8.30;99.90;;;;;;5068498;28;19925;-77
2021/11/10 10:42:55;;;;;;;;;;;8.40;99.90;;;;;;5070724;28;19932;-79
2021/11/10 10:45:30;;;;;;;;;;;8.40;99.90;;;;;;5072884;28;20087;-78
2021/11/10 10:47:57;;;;;;;;;;;8.50;99.90;;;;;;5074577;28;19909;-78
2021/11/10 10:50:41;;;;;;;;;;;8.50;99.90;;;;;;5072949;28;19925;-79
2021/11/10 10:53:07;;;;;;;;;;;8.50;99.90;;;;;;5070350;28;19924;-78
2021/11/10 10:55:37;;;;;;;;;;;8.50;99.90;;;;;;5069980;28;19924;-78
2021/11/10 10:58:05;;;;;;;;;;;8.50;99.90;;;;;;5072770;28;19924;-78
2021/11/10 11:00:33;;;;;;;;;;;8.50;99.90;;;;;;5070273;28;19929;-78
2021/11/10 11:03:22;;;;;;;;;;;8.50;99.90;;;;;;5067042;28;19925;-78
2021/11/10 11:05:49;;;;;;;;;;;8.60;99.90;;;;;;5066505;28;19925;-79
2021/11/10 11:08:25;;;;;;;;;;;8.80;99.90;;;;;;5093357;22;19924;-83
2021/11/10 11:10:53;;;;;;;;;;;8.90;99.90;;;;;;5085193;28;19939;-82
2021/11/10 11:13:24;;;;;;;;;;;8.80;99.90;;;;;;5084272;28;20023;-82
2021/11/10 11:16:04;;;;;;;;;;;8.80;99.90;;;;;;5084543;28;19924;-83
2021/11/10 11:18:31;;;;;;;;;;;8.70;99.90;;;;;;5083883;28;19924;-82
2021/11/10 11:20:57;;;;;;;;;;;8.70;99.90;;;;;;5083540;28;19931;-83
2021/11/10 11:23:40;;;;;;;;;;;8.60;99.90;;;;;;5082198;28;20456;-82
2021/11/10 11:26:07;;;;;;;;;;;8.70;99.90;;;;;;5082102;28;19931;-83
2021/11/10 11:28:37;;;;;;;;;;;8.60;99.90;;;;;;5081226;28;19928;-82
2021/11/10 11:31:04;;;;;;;;;;;8.50;99.90;;;;;;5081885;28;19928;-83
2021/11/10 11:33:33;;;;;;;;;;;8.60;99.90;;;;;;5083692;28;19925;-83
2021/11/10 11:36:00;;;;;;;;;;;8.50;99.90;;;;;;5083529;28;19924;-82
2021/11/10 11:38:29;;;;;;;;;;;8.50;99.90;;;;;;5082827;28;19951;-83
2021/11/10 11:40:57;;;;;;;;;;;8.70;99.90;;;;;;5081762;28;19925;-83
2021/11/10 11:43:27;;;;;;;;;;;8.50;99.90;;;;;;5084902;28;19932;-82
2021/11/10 11:45:54;;;;;;;;;;;8.50;99.90;;;;;;5089067;28;19924;-82
2021/11/10 11:48:22;;;;;;;;;;;8.50;99.90;;;;;;5084417;28;19925;-82
2021/11/10 11:50:49;;;;;;;;;;;8.40;99.90;;;;;;5083241;28;19925;-82
2021/11/10 11:53:16;;;;;;;;;;;8.40;99.90;;;;;;5080807;28;19925;-81
2021/11/10 11:55:46;;;;;;;;;;;8.50;99.90;;;;;;5081625;28;20272;-82
2021/11/10 11:58:14;;;;;;;;;;;8.60;99.90;;;;;;5082427;28;19997;-82
2021/11/10 12:00:43;;;;;;;;;;;9.10;99.90;;;;;;5083787;28;19986;-83
2021/11/10 12:03:19;;;;;;;;;;;8.50;99.90;;;;;;5083844;28;19925;-82
2021/11/10 12:05:46;;;;;;;;;;;8.50;99.90;;;;;;5080964;28;19931;-82
2021/11/10 12:08:13;;;;;;;;;;;8.50;99.90;;;;;;5079658;28;20368;-82
2021/11/10 12:10:41;;;;;;;;;;;8.50;99.90;;;;;;5080642;28;19974;-83
2021/11/10 12:13:09;;;;;;;;;;;8.50;99.90;;;;;;5081464;28;19925;-82
2021/11/10 12:15:54;;;;;;;;;;;8.50;99.90;;;;;;5083155;28;19924;-82
2021/11/10 12:18:22;;;;;;;;;;;8.50;99.90;;;;;;5087438;28;19924;-82
2021/11/10 12:20:56;;;;;;;;;;;8.60;99.90;;;;;;5088489;28;19924;-82
2021/11/10 12:23:22;;;;;;;;;;;8.60;99.90;;;;;;5088096;28;19924;-83
2021/11/10 12:26:01;;;;;;;;;;;8.60;99.90;;;;;;5086282;28;19925;-82
2021/11/10 12:28:48;;;;;;;;;;;8.70;99.90;;;;;;5085538;28;20350;-83
2021/11/10 12:31:27;;;;;;;;;;;8.70;99.90;;;;;;5085673;28;19928;-82
2021/11/10 12:33:55;;;;;;;;;;;8.60;99.90;;;;;;5082317;28;19978;-83
2021/11/10 12:36:41;;;;;;;;;;;8.60;99.90;;;;;;5080249;28;20298;-82
2021/11/10 12:39:08;;;;;;;;;;;8.60;99.90;;;;;;5079868;28;19924;-83
2021/11/10 12:41:45;;;;;;;;;;;8.60;99.90;;;;;;5080151;28;19932;-83
2021/11/10 12:44:23;;;;;;;;;;;8.60;99.90;;;;;;5080004;28;20023;-84
2021/11/10 12:46:50;;;;;;;;;;;8.60;99.90;;;;;;5080417;28;19924;-83
2021/11/10 12:49:18;;;;;;;;;;;8.70;99.90;;;;;;5079867;28;19995;-82
2021/11/10 12:51:45;;;;;;;;;;;8.60;99.90;;;;;;5079824;28;20050;-82
2021/11/10 12:54:21;;;;;;;;;;;8.70;99.90;;;;;;5081606;28;19925;-83
2021/11/10 12:56:49;;;;;;;;;;;8.70;99.90;;;;;;5081588;28;19924;-83
2021/11/10 12:59:25;;;;;;;;;;;8.70;99.90;;;;;;5081998;28;19931;-83
2021/11/10 13:01:54;;;;;;;;;;;8.70;99.90;;;;;;5080882;28;19924;-83
2021/11/10 13:04:24;;;;;;;;;;;8.70;99.90;;;;;;5090640;28;19960;-82
2021/11/10 13:06:53;;;;;;;;;;;8.80;99.90;;;;;;5095559;28;19924;-81
2021/11/10 13:09:27;;;;;;;;;;;8.80;99.90;;;;;;5089091;28;20007;-82
2021/11/10 13:11:54;;;;;;;;;;;8.80;99.90;;;;;;5087258;28;19951;-82
2021/11/10 13:14:24;;;;;;;;;;;8.80;99.90;;;;;;5082410;28;19947;-82
2021/11/10 13:16:58;;;;;;;;;;;8.90;99.90;;;;;;5083447;28;19947;-82
2021/11/10 13:19:38;;;;;;;;;;;8.90;99.90;;;;;;5089519;28;19943;-82
2021/11/10 13:22:04;;;;;;;;;;;8.90;99.90;;;;;;5092976;28;19929;-81
2021/11/10 13:24:31;;;;;;;;;;;9.00;99.90;;;;;;5093519;28;19985;-82
2021/11/10 13:26:57;;;;;;;;;;;9.00;99.90;;;;;;5091444;28;19924;-82
2021/11/10 13:29:24;;;;;;;;;;;9.00;99.90;;;;;;5086064;28;19974;-83
2021/11/10 13:31:51;;;;;;;;;;;8.90;99.90;;;;;;5090888;28;19912;-82
2021/11/10 13:34:18;;;;;;;;;;;8.90;99.90;;;;;;5092499;28;19925;-82
2021/11/10 13:36:46;;;;;;;;;;;8.80;99.90;;;;;;5083174;28;19982;-82
2021/11/10 13:39:15;;;;;;;;;;;8.80;99.90;;;;;;5083316;28;19929;-82
2021/11/10 13:41:43;;;;;;;;;;;8.70;99.90;;;;;;5082031;28;20249;-83
2021/11/10 13:44:10;;;;;;;;;;;8.70;99.90;;;;;;5081902;28;19925;-81
2021/11/10 13:46:39;;;;;;;;;;;8.70;99.90;;;;;;5083045;28;19924;-83
2021/11/10 13:49:07;;;;;;;;;;;8.70;99.90;;;;;;5083749;28;19934;-82
2021/11/10 13:51:34;;;;;;;;;;;8.60;99.90;;;;;;5091205;28;19936;-82
2021/11/10 13:54:03;;;;;;;;;;;8.60;99.90;;;;;;5095834;28;19925;-82
2021/11/10 13:56:36;;;;;;;;;;;8.60;99.90;;;;;;5094481;28;20030;-81
2021/11/10 13:59:09;;;;;;;;;;;8.70;99.90;;;;;;5093419;28;19924;-83
2021/11/10 14:01:35;;;;;;;;;;;8.70;99.90;;;;;;5095924;28;19989;-82
2021/11/10 14:04:06;;;;;;;;;;;9.90;99.90;;;;;;5092669;28;19988;-82
2021/11/10 14:06:32;;;;;;;;;;;8.60;99.90;;;;;;5082289;28;19947;-82
2021/11/10 14:09:10;;;;;;;;;;;8.60;99.90;;;;;;5082531;28;19925;-83
2021/11/10 14:11:37;;;;;;;;;;;8.60;99.90;;;;;;5086783;28;19924;-83
2021/11/10 14:14:03;;;;;;;;;;;8.60;99.90;;;;;;5097351;28;19980;-80
2021/11/10 14:16:30;;;;;;;;;;;8.60;99.90;;;;;;5099912;28;19966;-80
2021/11/10 14:18:57;;;;;;;;;;;8.40;99.90;;;;;;5100645;28;19936;-81
2021/11/10 14:21:26;;;;;;;;;;;8.60;99.90;;;;;;5090930;28;20315;-83
2021/11/10 14:23:58;;;;;;;;;;;8.60;99.90;;;;;;5081749;28;20379;-82
2021/11/10 14:26:28;;;;;;;;;;;8.50;99.90;;;;;;5081305;28;19928;-80
2021/11/10 14:28:54;;;;;;;;;;;8.50;99.90;;;;;;5082922;28;20337;-82
2021/11/10 14:31:22;;;;;;;;;;;9.60;99.90;;;;;;5095727;28;19913;-83
2021/11/10 14:33:56;;;;;;;;;;;8.40;99.90;;;;;;5100899;28;19916;-81